Airfield :
LOGIN :

Register | Disclaimer

   EN    FR    IT 

 










Legend :    VFR   Marginal VFR   IFR   Intensive IFR   Very Intensive IFR
Visi :
Ceiling :
>= 8 km
>= 3000ft
5 to 8 km
1000 to 3000 ft
1500m to 5 km
500 to 1000 ft
800 to 1500m
200 to 500 ft
< 800m
< 200 ft
Symbols :   Thunderstorms  Fog  Heavy snow  Heavy precipitations  Wind > 20 kt
SIGMETs :     Misc.  Thunderstorms  Icing  Turbulence  Mountain Waves  Volcanic Ashes






- Airport Elevation : 479 ft
- IATA code : DOL


LFRG - Deauville

CURRENT METAR :
  • 180430Z AUTO VRB02KT 9999 BKN030/// OVC140/// ///TCU 14/13 Q1012

EXPIRED METARs :
  • 180400Z AUTO VRB02KT 9000 ///TCU 14/13 Q1012
  • 180330Z AUTO VRB01KT 9999 FEW036 BKN160 OVC180 14/13 Q1012
  • 180300Z AUTO VRB02KT 9999 FEW037 SCT098 BKN120 14/13 Q1012
  • 180230Z AUTO VRB02KT 9999 BKN038 BKN098 OVC120 14/13 Q1012
  • 180200Z AUTO 12002KT 9999 SCT028 BKN036 BKN092 14/13 Q1012
  • 180130Z AUTO VRB02KT CAVOK 14/13 Q1012
  • 180100Z AUTO VRB02KT CAVOK 14/13 Q1013
  • 180030Z AUTO VRB03KT CAVOK 14/13 Q1013
  • 180000Z AUTO 08002KT CAVOK 15/13 Q1013

Expired Forecast.
ATIS : +33 2 31 65 65 36



MET'MAP, your aeronautical weather chart ! - Copyright ORBIFLY December 2007 - Disclaimer

ORBIFLY MET'MAP TEAM :

Programming & Development : Alexandra Zaïnal
Original concept : Baudouin d'Aumeries
Technical & hardware support : Manuel Goepfert
Assistance : Marc-Olivier Méhu




SOURCES & CREDITS :

   NOAA